This is the latest recevied weather packets stored in our database for station/object OE6JUE. If no packets are shown the sender has not sent any weather packets the latest 10 day(s).
| Time | Temp. | Humidity | Pressure | Rain* | Wind** | Luminosity | Snow |
|---|---|---|---|---|---|---|---|
| 1777961832 | 21.11° C | 42% | 1012.5 hPa | 0 mm | - | - | - |
| 1777961532 | 20° C | 46% | 1012.5 hPa | 0 mm | - | - | - |
| 1777961232 | 19.44° C | 47% | 1012.6 hPa | 0 mm | - | - | - |
| 1777960931 | 19.44° C | 47% | 1012.5 hPa | - | - | - | - |
| 1777960632 | 18.89° C | 49% | 1012.6 hPa | 0 mm | - | - | - |
| 1777960332 | 18.33° C | 50% | 1012.6 hPa | 0 mm | - | - | - |
| 1777960032 | 17.78° C | 50% | 1012.6 hPa | 0 mm | - | - | - |
| 1777959731 | 17.22° C | 52% | 1012.5 hPa | 0 mm | - | - | - |
| 1777959432 | 17.78° C | 51% | 1012.6 hPa | 0 mm | - | - | - |
| 1777959132 | 17.22° C | 58% | 1012.7 hPa | 0 mm | - | - | - |
| 1777958832 | 16.11° C | 60% | 1012.6 hPa | 0 mm | - | - | - |
| 1777958532 | 15° C | 61% | 1012.7 hPa | 0 mm | - | - | - |
| 1777958232 | 14.44° C | 62% | 1012.7 hPa | 0 mm | - | - | - |
| 1777957932 | 15° C | 60% | 1012.7 hPa | 0 mm | - | - | - |
| 1777957632 | 15.56° C | 62% | 1012.7 hPa | 0 mm | - | - | - |
| 1777957332 | 14.44° C | 65% | 1012.7 hPa | - | - | - | - |
| 1777957032 | 13.89° C | 70% | 1012.7 hPa | 0 mm | - | - | - |
| 1777956731 | 13.33° C | 73% | 1012.7 hPa | 0 mm | - | - | - |
| 1777956432 | 11.67° C | 78% | 1012.6 hPa | 0 mm | - | - | - |
| 1777956132 | 10.56° C | 79% | 1012.4 hPa | 0 mm | - | - | - |
| 1777955833 | 8.89° C | 79% | 1012.5 hPa | 0 mm | - | - | - |
| 1777955532 | 8.33° C | 77% | 1012.5 hPa | 0 mm | - | - | - |
| 1777955232 | 7.78° C | 77% | 1012.7 hPa | 0 mm | - | - | - |
| 1777954932 | 8.33° C | 77% | 1012.6 hPa | 0 mm | - | - | - |
| 1777954632 | 8.33° C | 77% | 1012.6 hPa | 0 mm | - | - | - |
* Rain latest hour (hover to see other rain measurements)
** Current wind speed in m/s (hover to see current wind gust speed)